createdAt,value
2019-05-10T00:01:17.899Z,13.31
2019-05-10T00:04:06.518Z,13.21
2019-05-10T00:06:54.965Z,13.23
2019-05-10T00:09:25.091Z,13.17
2019-05-10T00:12:15.179Z,13.18
2019-05-10T00:14:51.366Z,13.28
2019-05-10T00:17:24.230Z,13.30
2019-05-10T00:19:55.343Z,13.27
2019-05-10T00:22:26.775Z,13.31
2019-05-10T00:25:04.297Z,13.34
2019-05-10T00:27:30.842Z,13.29
2019-05-10T00:30:01.926Z,13.30
2019-05-10T00:32:34.095Z,13.27
2019-05-10T00:35:06.095Z,13.25
2019-05-10T00:37:37.486Z,13.28
2019-05-10T00:40:08.911Z,13.15
2019-05-10T00:42:41.142Z,13.19
2019-05-10T00:45:12.523Z,13.24
2019-05-10T00:47:43.499Z,13.16
2019-05-10T00:50:14.734Z,13.20
2019-05-10T00:52:45.722Z,13.22
2019-05-10T00:55:19.317Z,13.11
2019-05-10T00:57:49.940Z,13.11
2019-05-10T01:00:21.301Z,13.16
2019-05-10T01:02:52.308Z,13.05
2019-05-10T01:05:23.470Z,13.11
2019-05-10T01:07:54.629Z,13.11
2019-05-10T01:10:25.650Z,13.13
2019-05-10T01:12:57.704Z,13.09
2019-05-10T01:15:28.792Z,13.08
2019-05-10T01:17:59.795Z,13.06
2019-05-10T01:20:31.857Z,13.03
2019-05-10T01:23:02.856Z,13.06
2019-05-10T01:25:35.844Z,13.10
2019-05-10T01:28:25.722Z,13.08
2019-05-10T01:30:57.814Z,13.12
2019-05-10T01:33:29.072Z,13.06
2019-05-10T01:36:00.166Z,13.04
2019-05-10T01:38:31.186Z,13.07
2019-05-10T01:41:02.187Z,13.06
2019-05-10T01:43:33.233Z,13.12
2019-05-10T01:46:04.317Z,13.03
2019-05-10T01:48:35.289Z,13.06
2019-05-10T01:51:07.954Z,13.07
2019-05-10T01:53:39.983Z,13.03
2019-05-10T01:56:11.388Z,12.98
2019-05-10T01:58:42.389Z,12.87
2019-05-10T02:01:14.017Z,12.85
2019-05-10T02:03:45.368Z,12.96
2019-05-10T02:06:16.456Z,12.86
2019-05-10T02:08:47.534Z,12.88
2019-05-10T02:11:18.718Z,12.82
2019-05-10T02:13:49.837Z,12.89
2019-05-10T02:16:20.923Z,12.98
2019-05-10T02:18:52.011Z,12.93
2019-05-10T02:21:23.049Z,12.93
2019-05-10T02:23:54.146Z,12.98
2019-05-10T02:26:25.331Z,12.96
2019-05-10T02:28:57.817Z,13.01
2019-05-10T02:31:28.818Z,12.90
2019-05-10T02:34:00.817Z,12.89
2019-05-10T02:36:31.880Z,12.91
2019-05-10T02:39:03.201Z,12.91
2019-05-10T02:41:34.299Z,12.88
2019-05-10T02:44:05.472Z,12.87
2019-05-10T02:46:36.557Z,12.83
2019-05-10T02:49:08.116Z,12.72
2019-05-10T02:51:39.209Z,12.77
2019-05-10T02:54:11.620Z,12.86
2019-05-10T02:56:43.151Z,12.82
2019-05-10T02:59:14.389Z,12.71
2019-05-10T03:01:47.240Z,12.70
2019-05-10T03:04:20.732Z,12.67
2019-05-10T03:07:02.579Z,12.67
2019-05-10T03:09:35.701Z,12.67
2019-05-10T03:12:24.332Z,12.61
2019-05-10T03:14:59.387Z,12.67
2019-05-10T03:17:30.708Z,12.61
2019-05-10T03:20:02.499Z,12.69
2019-05-10T03:22:40.469Z,12.63
2019-05-10T03:25:11.968Z,12.53
2019-05-10T03:27:43.121Z,12.49
2019-05-10T03:30:14.830Z,12.53
2019-05-10T03:32:46.124Z,12.56
2019-05-10T03:35:17.201Z,12.54
2019-05-10T03:37:48.469Z,12.55
2019-05-10T03:40:19.556Z,12.50
2019-05-10T03:42:50.855Z,12.52
2019-05-10T03:45:22.086Z,12.57
2019-05-10T03:47:53.081Z,12.55
2019-05-10T03:50:24.106Z,12.68
2019-05-10T03:52:55.142Z,12.74
2019-05-10T03:55:26.401Z,12.66
2019-05-10T03:57:58.172Z,12.64
2019-05-10T04:00:29.286Z,12.64
2019-05-10T04:03:00.425Z,12.69
2019-05-10T04:05:31.494Z,12.65
2019-05-10T04:08:03.535Z,12.62
2019-05-10T04:10:34.783Z,12.68
2019-05-10T04:13:05.847Z,12.61
2019-05-10T04:15:36.925Z,12.64
2019-05-10T04:18:08.082Z,12.62
2019-05-10T04:20:39.104Z,12.54
2019-05-10T04:23:10.113Z,12.58
2019-05-10T04:25:41.797Z,12.57
2019-05-10T04:28:12.806Z,12.52
2019-05-10T04:30:43.860Z,12.55
2019-05-10T04:33:14.950Z,12.50
2019-05-10T04:35:45.952Z,12.51
2019-05-10T04:38:16.966Z,12.57
2019-05-10T04:40:47.969Z,12.54
2019-05-10T04:43:19.049Z,12.49
2019-05-10T04:45:50.060Z,12.51
2019-05-10T04:48:21.104Z,12.42
2019-05-10T04:50:52.178Z,12.49
2019-05-10T04:53:23.481Z,12.60
2019-05-10T04:55:54.505Z,12.49
2019-05-10T04:58:25.567Z,12.53
2019-05-10T05:00:56.624Z,12.65
2019-05-10T05:03:27.632Z,12.63
2019-05-10T05:05:58.715Z,12.68
2019-05-10T05:08:30.688Z,12.67
2019-05-10T05:11:01.715Z,12.64
2019-05-10T05:13:32.721Z,12.66
2019-05-10T05:16:03.868Z,12.57
2019-05-10T05:18:34.877Z,12.57
2019-05-10T05:21:05.959Z,12.59
2019-05-10T05:23:38.592Z,12.58
2019-05-10T05:26:09.708Z,12.68
2019-05-10T05:28:42.056Z,12.71
2019-05-10T05:31:13.131Z,12.75
2019-05-10T05:33:44.148Z,12.77
2019-05-10T05:36:15.233Z,12.80
2019-05-10T05:38:47.767Z,12.81
2019-05-10T05:41:20.130Z,12.86
2019-05-10T05:43:51.253Z,12.87
2019-05-10T05:46:22.673Z,13.01
2019-05-10T05:48:53.710Z,13.12
2019-05-10T05:51:24.706Z,13.10
2019-05-10T05:53:55.770Z,13.17
2019-05-10T05:56:26.758Z,13.22
2019-05-10T05:58:58.411Z,13.25
2019-05-10T06:01:29.826Z,13.30
2019-05-10T06:04:06.379Z,13.32
2019-05-10T06:06:34.714Z,13.40
2019-05-10T06:09:08.061Z,13.46
2019-05-10T06:11:39.095Z,13.58
2019-05-10T06:14:12.537Z,13.72
2019-05-10T06:16:44.982Z,13.67
2019-05-10T06:19:20.490Z,13.64
2019-05-10T06:21:48.651Z,13.72
2019-05-10T06:24:19.691Z,13.75
2019-05-10T06:26:50.876Z,13.86
2019-05-10T06:29:21.912Z,13.88
2019-05-10T06:31:52.987Z,13.95
2019-05-10T06:34:25.141Z,13.99
2019-05-10T06:36:58.522Z,14.02
2019-05-10T06:39:29.656Z,14.05
2019-05-10T06:42:00.787Z,14.21
2019-05-10T06:44:33.149Z,14.24
2019-05-10T06:47:08.468Z,14.37
2019-05-10T06:49:41.063Z,14.41
2019-05-10T06:52:10.208Z,14.33
2019-05-10T06:54:42.259Z,14.34
2019-05-10T06:57:17.436Z,14.41
2019-05-10T06:59:46.155Z,14.48
2019-05-10T07:02:19.929Z,14.58
2019-05-10T07:04:51.035Z,14.63
2019-05-10T07:07:42.656Z,14.68
2019-05-10T07:10:12.356Z,14.73
2019-05-10T07:12:30.273Z,14.71
2019-05-10T07:15:03.492Z,14.74
2019-05-10T07:17:41.416Z,14.77
2019-05-10T07:20:08.062Z,14.85
2019-05-10T07:22:39.052Z,14.84
2019-05-10T07:25:10.763Z,14.86
2019-05-10T07:27:42.275Z,14.96
2019-05-10T07:30:13.456Z,14.97
2019-05-10T07:32:44.612Z,14.97
2019-05-10T07:35:15.814Z,14.97
2019-05-10T07:37:47.695Z,15.15
2019-05-10T07:40:19.617Z,15.26
2019-05-10T07:42:50.671Z,15.39
2019-05-10T07:45:25.488Z,15.38
2019-05-10T07:47:54.660Z,15.38
2019-05-10T07:50:25.819Z,15.44
2019-05-10T07:52:56.933Z,15.54
2019-05-10T07:55:29.845Z,15.47
2019-05-10T07:58:05.121Z,15.64
2019-05-10T08:00:37.901Z,15.77
2019-05-10T08:03:15.852Z,15.81
2019-05-10T08:05:39.625Z,15.93
2019-05-10T08:08:10.769Z,15.78
2019-05-10T08:10:42.515Z,15.72
2019-05-10T08:13:15.372Z,15.77
2019-05-10T08:15:49.001Z,15.99
2019-05-10T08:18:21.121Z,15.61
2019-05-10T08:20:57.734Z,15.63
2019-05-10T08:23:27.740Z,15.67
2019-05-10T08:25:58.682Z,15.58
2019-05-10T08:28:36.087Z,15.55
2019-05-10T08:31:02.642Z,15.72
2019-05-10T08:33:33.708Z,15.92
2019-05-10T08:36:05.421Z,16.03
2019-05-10T08:38:39.718Z,16.11
2019-05-10T08:41:14.768Z,16.05
2019-05-10T08:43:45.371Z,16.26
2019-05-10T08:46:19.357Z,16.39
2019-05-10T08:48:53.084Z,16.57
2019-05-10T08:51:22.857Z,16.67
2019-05-10T08:53:58.219Z,16.51
2019-05-10T08:56:26.924Z,16.48
2019-05-10T08:58:59.024Z,16.50
2019-05-10T09:01:33.535Z,16.52
2019-05-10T09:04:06.766Z,16.69
2019-05-10T09:06:35.932Z,16.66
2019-05-10T09:09:08.496Z,16.72
2019-05-10T09:11:44.030Z,17.00
2019-05-10T09:14:19.719Z,17.36
2019-05-10T09:16:56.544Z,17.17
2019-05-10T09:19:27.799Z,17.02
2019-05-10T09:21:55.021Z,17.07
2019-05-10T09:24:25.227Z,17.00
2019-05-10T09:26:57.137Z,17.04
2019-05-10T09:29:33.028Z,17.16
2019-05-10T09:32:06.087Z,17.15
2019-05-10T09:34:33.775Z,17.15
2019-05-10T09:37:08.101Z,17.15
2019-05-10T09:39:37.641Z,17.21
2019-05-10T09:42:16.386Z,17.16
2019-05-10T09:44:45.599Z,17.26
2019-05-10T09:47:15.498Z,17.25
2019-05-10T09:49:56.649Z,17.29
2019-05-10T09:52:19.533Z,17.29
2019-05-10T09:54:50.684Z,17.25
2019-05-10T09:57:21.887Z,17.29
2019-05-10T09:59:54.002Z,17.36
2019-05-10T10:02:31.087Z,17.46
2019-05-10T10:04:59.153Z,17.48
2019-05-10T10:07:33.567Z,17.53
2019-05-10T10:10:03.269Z,17.53
2019-05-10T10:12:37.063Z,17.43
2019-05-10T10:15:10.704Z,17.44
2019-05-10T10:17:42.301Z,17.28
2019-05-10T10:20:14.232Z,17.09
2019-05-10T10:22:49.652Z,17.00
2019-05-10T10:25:18.225Z,17.05
2019-05-10T10:27:49.349Z,17.04
2019-05-10T10:30:21.658Z,17.05
2019-05-10T10:32:53.785Z,16.99
2019-05-10T10:35:27.717Z,17.00
2019-05-10T10:38:02.802Z,16.93
2019-05-10T10:40:35.473Z,16.91
2019-05-10T10:43:03.562Z,16.95
2019-05-10T10:45:37.419Z,16.98
2019-05-10T10:48:11.423Z,17.11
2019-05-10T10:50:44.211Z,17.22
2019-05-10T10:53:13.219Z,17.23
2019-05-10T10:55:48.475Z,17.26
2019-05-10T10:58:18.555Z,17.34
2019-05-10T11:00:50.039Z,17.48
2019-05-10T11:03:23.995Z,17.55
2019-05-10T11:05:54.079Z,17.57
2019-05-10T11:08:25.169Z,17.52
2019-05-10T11:10:56.309Z,17.48
2019-05-10T11:13:41.555Z,17.53
2019-05-10T11:16:09.919Z,17.63
2019-05-10T11:18:32.871Z,17.59
2019-05-10T11:21:04.093Z,17.66
2019-05-10T11:23:39.125Z,17.72
2019-05-10T11:26:07.932Z,17.74
2019-05-10T11:28:43.979Z,17.98
2019-05-10T11:31:13.113Z,17.90
2019-05-10T11:33:47.214Z,17.87
2019-05-10T11:36:16.901Z,17.78
2019-05-10T11:38:56.906Z,17.87
2019-05-10T11:41:23.778Z,17.78
2019-05-10T11:43:57.999Z,17.81
2019-05-10T11:46:28.047Z,17.76
2019-05-10T11:49:01.557Z,17.66
2019-05-10T11:51:32.235Z,17.69
2019-05-10T11:54:03.355Z,17.60
2019-05-10T11:56:34.453Z,17.51
2019-05-10T11:59:06.019Z,17.47
2019-05-10T12:01:41.485Z,17.52
2019-05-10T12:04:22.173Z,17.62
2019-05-10T12:06:49.885Z,17.70
2019-05-10T12:09:16.742Z,17.73
2019-05-10T12:11:56.724Z,17.71
2019-05-10T12:14:21.907Z,17.63
2019-05-10T12:16:54.504Z,17.59
2019-05-10T12:19:25.900Z,17.60
2019-05-10T12:21:56.953Z,17.55
2019-05-10T12:24:45.575Z,17.51
2019-05-10T12:27:18.486Z,17.51
2019-05-10T12:29:33.510Z,17.42
2019-05-10T12:32:04.694Z,17.37
2019-05-10T12:34:35.751Z,17.43
2019-05-10T12:37:08.426Z,17.43
2019-05-10T12:39:39.724Z,17.39
2019-05-10T12:42:11.329Z,17.40
2019-05-10T12:44:47.957Z,17.49
2019-05-10T12:47:17.774Z,17.56
2019-05-10T12:49:54.010Z,17.60
2019-05-10T12:52:27.725Z,17.61
2019-05-10T12:54:54.459Z,17.53
2019-05-10T12:57:25.642Z,17.54
2019-05-10T12:59:56.817Z,17.51
2019-05-10T13:02:27.948Z,17.34
2019-05-10T13:04:59.967Z,17.31
2019-05-10T13:07:31.116Z,17.15
2019-05-10T13:10:06.023Z,17.11
2019-05-10T13:12:36.753Z,17.06
2019-05-10T13:15:08.473Z,17.02
2019-05-10T13:17:44.190Z,17.07
2019-05-10T13:20:14.068Z,16.88
2019-05-10T13:22:45.132Z,16.82
2019-05-10T13:25:16.628Z,16.88
2019-05-10T13:27:47.732Z,16.93
2019-05-10T13:30:27.492Z,16.94
2019-05-10T13:32:58.826Z,17.00
2019-05-10T13:35:24.765Z,16.98
2019-05-10T13:37:56.775Z,17.13
2019-05-10T13:40:28.731Z,17.14
2019-05-10T13:42:59.806Z,17.13
2019-05-10T13:45:31.811Z,17.11
2019-05-10T13:48:03.781Z,17.12
2019-05-10T13:50:34.980Z,17.12
2019-05-10T13:53:06.195Z,17.03
2019-05-10T13:55:37.245Z,17.02
2019-05-10T13:58:08.591Z,17.17
2019-05-10T14:00:39.755Z,16.99
2019-05-10T14:03:13.320Z,17.03
2019-05-10T14:05:43.834Z,17.02
2019-05-10T14:08:14.924Z,17.02
2019-05-10T14:10:49.204Z,17.02
2019-05-10T14:13:18.669Z,17.15
2019-05-10T14:15:49.651Z,17.14
2019-05-10T14:18:21.821Z,17.44
2019-05-10T14:20:52.863Z,17.42
2019-05-10T14:23:28.879Z,17.39
2019-05-10T14:25:56.669Z,17.39
2019-05-10T14:28:27.676Z,17.31
2019-05-10T14:31:00.134Z,17.52
2019-05-10T14:33:31.151Z,17.54
2019-05-10T14:36:03.348Z,17.63
2019-05-10T14:38:34.753Z,17.72
2019-05-10T14:41:10.909Z,17.64
2019-05-10T14:43:38.650Z,17.76
2019-05-10T14:46:13.746Z,17.80
2019-05-10T14:48:43.709Z,17.74
2019-05-10T14:51:15.084Z,17.83
2019-05-10T14:53:46.233Z,18.06
2019-05-10T14:56:17.405Z,17.94
2019-05-10T14:58:48.540Z,17.90
2019-05-10T15:01:19.585Z,17.85
2019-05-10T15:03:50.664Z,17.90
2019-05-10T15:06:22.052Z,17.97
2019-05-10T15:08:53.454Z,18.19
2019-05-10T15:11:26.489Z,18.06
2019-05-10T15:13:57.379Z,17.98
2019-05-10T15:16:30.908Z,17.96
2019-05-10T15:19:01.404Z,18.02
2019-05-10T15:21:34.570Z,18.03
2019-05-10T15:24:05.641Z,18.10
2019-05-10T15:26:37.592Z,18.10
2019-05-10T15:29:15.044Z,18.10
2019-05-10T15:31:43.695Z,17.99
2019-05-10T15:34:14.830Z,18.10
2019-05-10T15:36:45.904Z,18.06
2019-05-10T15:39:16.959Z,18.05
2019-05-10T15:41:48.069Z,18.07
2019-05-10T15:44:19.137Z,18.11
2019-05-10T15:46:50.200Z,18.04
2019-05-10T15:49:24.408Z,18.04
2019-05-10T15:51:56.984Z,18.00
2019-05-10T15:54:27.038Z,18.01
2019-05-10T15:56:58.193Z,17.95
2019-05-10T15:59:29.335Z,18.02
2019-05-10T16:02:00.916Z,17.96
2019-05-10T16:04:32.067Z,18.04
2019-05-10T16:07:03.137Z,17.99
2019-05-10T16:09:34.221Z,17.94
2019-05-10T16:12:08.572Z,17.95
2019-05-10T16:14:39.194Z,17.93
2019-05-10T16:17:17.647Z,17.90
2019-05-10T16:19:43.973Z,17.91
2019-05-10T16:22:15.108Z,17.89
2019-05-10T16:24:46.196Z,17.89
2019-05-10T16:27:17.275Z,17.86
2019-05-10T16:29:48.426Z,17.80
2019-05-10T16:32:19.471Z,17.88
2019-05-10T16:34:50.492Z,17.76
2019-05-10T16:37:22.470Z,17.73
2019-05-10T16:39:53.519Z,17.76
2019-05-10T16:42:27.976Z,17.71
2019-05-10T16:44:57.350Z,17.67
2019-05-10T16:47:28.316Z,17.68
2019-05-10T16:50:00.349Z,17.63
2019-05-10T16:52:31.471Z,17.65
2019-05-10T16:55:03.575Z,17.61
2019-05-10T16:57:37.398Z,17.56
2019-05-10T17:00:10.719Z,17.51
2019-05-10T17:02:43.820Z,17.54
2019-05-10T17:05:17.158Z,17.53
2019-05-10T17:07:47.861Z,17.52
2019-05-10T17:10:19.042Z,17.47
2019-05-10T17:12:50.056Z,17.48
2019-05-10T17:15:21.362Z,17.48
2019-05-10T17:17:52.353Z,17.46
2019-05-10T17:20:23.542Z,17.44
2019-05-10T17:22:54.555Z,17.43
2019-05-10T17:25:25.641Z,17.43
2019-05-10T17:27:59.811Z,17.47
2019-05-10T17:30:29.589Z,17.48
2019-05-10T17:33:03.792Z,17.51
2019-05-10T17:35:36.635Z,17.43
2019-05-10T17:38:07.891Z,17.46
2019-05-10T17:40:42.330Z,17.44
2019-05-10T17:43:14.522Z,17.42
2019-05-10T17:45:44.638Z,17.46
2019-05-10T17:48:15.721Z,17.43
2019-05-10T17:50:46.774Z,17.42
2019-05-10T17:53:17.969Z,17.45
2019-05-10T17:55:55.336Z,17.42
2019-05-10T17:58:22.254Z,17.39
2019-05-10T18:00:53.390Z,17.38
2019-05-10T18:03:24.643Z,17.38
2019-05-10T18:05:55.777Z,17.33
2019-05-10T18:08:27.150Z,17.32
2019-05-10T18:11:04.136Z,17.25
2019-05-10T18:13:35.460Z,17.19
2019-05-10T18:16:09.072Z,17.17
2019-05-10T18:18:46.411Z,17.13
2019-05-10T18:21:15.738Z,17.07
2019-05-10T18:23:44.372Z,17.04
2019-05-10T18:26:15.536Z,17.02
2019-05-10T18:28:46.583Z,17.00
2019-05-10T18:31:17.907Z,17.02
2019-05-10T18:33:54.250Z,17.01
2019-05-10T18:36:26.711Z,17.03
2019-05-10T18:38:55.125Z,16.94
2019-05-10T18:41:26.207Z,16.89
2019-05-10T18:43:57.416Z,16.83
2019-05-10T18:46:28.511Z,16.71
2019-05-10T18:49:00.834Z,16.72
2019-05-10T18:51:34.517Z,16.69
2019-05-10T18:54:04.822Z,16.59
2019-05-10T18:56:36.007Z,16.57
2019-05-10T18:59:09.231Z,16.42
2019-05-10T19:01:40.710Z,16.40
2019-05-10T19:04:14.124Z,16.32
2019-05-10T19:06:50.202Z,16.27
2019-05-10T19:09:17.786Z,16.19
2019-05-10T19:11:49.040Z,16.15
2019-05-10T19:14:23.975Z,16.12
2019-05-10T19:16:53.588Z,16.15
2019-05-10T19:19:24.641Z,16.13
2019-05-10T19:22:10.252Z,16.03
2019-05-10T19:24:42.739Z,16.08
2019-05-10T19:27:14.501Z,16.00
2019-05-10T19:29:47.842Z,15.98
2019-05-10T19:32:20.214Z,16.05
2019-05-10T19:34:57.339Z,16.08
2019-05-10T19:37:31.359Z,16.03
2019-05-10T19:39:56.782Z,16.05
2019-05-10T19:42:31.351Z,16.02
2019-05-10T19:45:01.060Z,15.99
2019-05-10T19:47:33.346Z,15.99
2019-05-10T19:50:04.798Z,16.01
2019-05-10T19:52:35.954Z,16.00
2019-05-10T19:55:07.295Z,15.99
2019-05-10T19:57:38.445Z,15.88
2019-05-10T20:03:15.245Z,15.85
2019-05-10T20:05:46.494Z,15.93
2019-05-10T20:08:17.740Z,15.87
2019-05-10T20:10:48.789Z,15.81
2019-05-10T20:13:19.980Z,15.77
2019-05-10T20:15:51.267Z,15.70
2019-05-10T20:18:22.685Z,15.67
2019-05-10T20:20:53.751Z,15.67
2019-05-10T20:23:24.901Z,15.49
2019-05-10T20:25:59.195Z,15.60
2019-05-10T20:28:28.889Z,15.51
2019-05-10T20:31:00.275Z,15.54
2019-05-10T20:33:31.341Z,15.55
2019-05-10T20:36:02.474Z,15.57
2019-05-10T20:38:33.487Z,15.61
2019-05-10T20:41:04.602Z,15.54
2019-05-10T20:43:35.644Z,15.47
2019-05-10T20:46:07.292Z,15.54
2019-05-10T20:48:38.545Z,15.54
2019-05-10T20:51:09.696Z,15.49
2019-05-10T20:53:41.260Z,15.44
2019-05-10T20:56:12.409Z,15.50
2019-05-10T20:58:43.480Z,15.52
2019-05-10T21:01:14.535Z,15.42
2019-05-10T21:03:45.693Z,15.43
2019-05-10T21:06:16.837Z,15.43
2019-05-10T21:08:47.895Z,15.36
2019-05-10T21:11:18.930Z,15.31
2019-05-10T21:13:49.982Z,15.28
2019-05-10T21:16:21.102Z,15.26
2019-05-10T21:18:52.312Z,15.31
2019-05-10T21:21:23.437Z,15.30
2019-05-10T21:23:54.473Z,15.33
2019-05-10T21:26:25.489Z,15.31
2019-05-10T21:28:56.594Z,15.27
2019-05-10T21:31:28.755Z,15.23
2019-05-10T21:34:09.424Z,15.19
2019-05-10T21:36:32.582Z,15.15
2019-05-10T21:39:07.131Z,15.21
2019-05-10T21:41:38.148Z,15.16
2019-05-10T21:44:09.338Z,15.15
2019-05-10T21:46:40.538Z,15.16
2019-05-10T21:49:11.823Z,15.17
2019-05-10T21:51:42.919Z,15.16
2019-05-10T21:54:13.987Z,15.17
2019-05-10T21:56:45.114Z,15.22
2019-05-10T21:59:17.323Z,15.27
2019-05-10T22:01:48.646Z,15.11
2019-05-10T22:04:19.755Z,14.97
2019-05-10T22:06:51.809Z,15.03
2019-05-10T22:09:23.031Z,15.07
2019-05-10T22:11:54.169Z,14.99
2019-05-10T22:14:26.323Z,14.95
2019-05-10T22:16:57.396Z,14.98
2019-05-10T22:19:28.898Z,15.00
2019-05-10T22:21:59.957Z,14.90
2019-05-10T22:24:31.100Z,14.98
2019-05-10T22:27:02.176Z,14.94
2019-05-10T22:29:33.257Z,14.93
2019-05-10T22:32:04.399Z,14.90
2019-05-10T22:34:35.454Z,14.92
2019-05-10T22:37:06.588Z,14.94
2019-05-10T22:39:37.688Z,14.87
2019-05-10T22:42:08.739Z,14.90
2019-05-10T22:44:39.806Z,14.90
2019-05-10T22:47:10.886Z,14.88
2019-05-10T22:49:44.173Z,14.93
2019-05-10T22:52:15.703Z,14.93
2019-05-10T22:54:46.883Z,14.86
2019-05-10T22:57:18.021Z,14.90
2019-05-10T22:59:49.123Z,14.77
2019-05-10T23:02:20.323Z,14.87
2019-05-10T23:04:51.443Z,14.83
2019-05-10T23:07:22.555Z,14.86
2019-05-10T23:09:53.673Z,14.80
2019-05-10T23:12:25.107Z,14.86
2019-05-10T23:14:56.315Z,14.83
2019-05-10T23:17:27.465Z,14.85
2019-05-10T23:19:59.110Z,14.83
2019-05-10T23:22:30.163Z,14.85
2019-05-10T23:25:01.261Z,14.85
2019-05-10T23:27:32.306Z,14.80
2019-05-10T23:30:03.554Z,14.77
2019-05-10T23:32:34.773Z,14.80
2019-05-10T23:35:06.091Z,14.87
2019-05-10T23:37:37.459Z,14.82
2019-05-10T23:40:09.138Z,14.82
2019-05-10T23:42:40.208Z,14.82
2019-05-10T23:45:13.017Z,14.76
2019-05-10T23:47:44.180Z,14.73
2019-05-10T23:50:15.440Z,14.75
2019-05-10T23:52:46.619Z,14.75
2019-05-10T23:55:17.805Z,14.68
2019-05-10T23:57:48.965Z,14.71
